Time;durP1;ratioP1;P1;durP2;ratioP2;P2;SDS_P1;SDS_P2;PMS_P1;PMS_P2;Temp;Humidity;BMP_temperature;BMP_pressure;BME280_temperature;BME280_humidity;BME280_pressure;Samples;Min_cycle;Max_cycle;Signal;HPM_P1;HPM_P2
2023/04/13 07:40:50;;;;;;;;;;;17.70;96.60;;;;;;6244195;22;20001;-71
2023/04/13 07:43:17;;;;;;;;;;;17.70;96.70;;;;;;6243905;23;19908;-72
2023/04/13 07:45:44;;;;;;;;;;;17.60;96.80;;;;;;6244475;22;19966;-71
2023/04/13 07:48:11;;;;;;;;;;;17.70;96.80;;;;;;6244654;23;19908;-71
2023/04/13 07:50:43;;;;;;;;;;;17.60;96.90;;;;;;6244820;23;20273;-71
2023/04/13 07:53:10;;;;;;;;;;;17.70;97.10;;;;;;6244884;23;20235;-71
2023/04/13 07:55:37;;;;;;;;;;;17.70;97.10;;;;;;6243948;22;19950;-71
2023/04/13 07:58:04;;;;;;;;;;;17.80;97.20;;;;;;6245211;23;19965;-71
2023/04/13 08:00:31;;;;;;;;;;;17.70;97.20;;;;;;6245358;23;19908;-71
2023/04/13 08:02:57;;;;;;;;;;;17.80;97.20;;;;;;6245321;23;20326;-70
2023/04/13 08:05:24;;;;;;;;;;;17.80;97.30;;;;;;6245023;23;19904;-71
2023/04/13 08:07:51;;;;;;;;;;;17.80;97.40;;;;;;6244231;22;19939;-70
2023/04/13 08:10:18;;;;;;;;;;;17.80;97.30;;;;;;6245467;23;20211;-71
2023/04/13 08:12:45;;;;;;;;;;;17.80;97.40;;;;;;6245524;23;19934;-71
2023/04/13 08:15:12;;;;;;;;;;;17.80;97.40;;;;;;6247124;23;19911;-71
2023/04/13 08:17:38;;;;;;;;;;;17.80;97.40;;;;;;6245205;22;20319;-71
2023/04/13 08:20:07;;;;;;;;;;;17.80;97.50;;;;;;6246024;23;19904;-71
2023/04/13 08:22:33;;;;;;;;;;;17.80;97.50;;;;;;6246597;23;19907;-71
2023/04/13 08:25:00;;;;;;;;;;;17.80;97.50;;;;;;6246012;23;19903;-71
2023/04/13 08:27:27;;;;;;;;;;;17.80;97.50;;;;;;6245929;22;20315;-71
2023/04/13 08:30:00;;;;;;;;;;;17.80;97.60;;;;;;6246407;23;19927;-71
2023/04/13 08:32:27;;;;;;;;;;;17.80;97.60;;;;;;6220867;23;20334;-70
2023/04/13 08:34:55;;;;;;;;;;;17.80;97.60;;;;;;6246217;23;19904;-70
2023/04/13 08:37:23;;;;;;;;;;;17.80;97.60;;;;;;6246458;22;20013;-70
2023/04/13 08:39:55;;;;;;;;;;;17.80;97.70;;;;;;6246178;22;20270;-71
2023/04/13 08:42:21;;;;;;;;;;;17.80;97.60;;;;;;6246576;23;19907;-71
2023/04/13 08:44:48;;;;;;;;;;;17.80;97.70;;;;;;6246159;23;19910;-71
2023/04/13 08:47:15;;;;;;;;;;;17.90;97.70;;;;;;6219362;23;19946;-73
2023/04/13 08:49:42;;;;;;;;;;;17.80;97.70;;;;;;6246321;23;19907;-71
2023/04/13 08:52:08;;;;;;;;;;;17.90;97.80;;;;;;6219952;23;19904;-70
2023/04/13 08:54:35;;;;;;;;;;;17.80;97.70;;;;;;6218951;23;20242;-68
2023/04/13 08:57:02;;;;;;;;;;;17.80;97.80;;;;;;6245348;22;19918;-69
2023/04/13 08:59:29;;;;;;;;;;;17.80;97.80;;;;;;6246742;23;19907;-69
2023/04/13 09:01:56;;;;;;;;;;;17.90;97.80;;;;;;6247086;23;19904;-69
2023/04/13 09:04:23;;;;;;;;;;;17.90;97.90;;;;;;6218642;23;19916;-71
2023/04/13 09:06:50;;;;;;;;;;;18.00;97.90;;;;;;6191285;23;19917;-71
2023/04/13 09:09:17;;;;;;;;;;;18.00;97.90;;;;;;6216862;23;20039;-72
2023/04/13 09:11:44;;;;;;;;;;;17.90;97.90;;;;;;6217339;23;19912;-72
2023/04/13 09:14:11;;;;;;;;;;;18.00;97.90;;;;;;6243937;23;20263;-71
2023/04/13 09:16:41;;;;;;;;;;;18.00;97.90;;;;;;6242248;22;20002;-72
2023/04/13 09:19:08;;;;;;;;;;;18.00;98.00;;;;;;6243523;23;19917;-70
2023/04/13 09:21:38;;;;;;;;;;;18.00;98.00;;;;;;6242970;23;19956;-70
2023/04/13 09:24:05;;;;;;;;;;;18.00;98.00;;;;;;6243043;23;19940;-70
2023/04/13 09:26:41;;;;;;;;;;;18.00;98.00;;;;;;6243166;22;20379;-71
2023/04/13 09:29:09;;;;;;;;;;;18.00;98.00;;;;;;6242600;23;19907;-71
2023/04/13 09:31:38;;;;;;;;;;;17.90;98.00;;;;;;6243385;23;19961;-71
2023/04/13 09:34:07;;;;;;;;;;;17.90;98.00;;;;;;6243128;23;19922;-72
2023/04/13 09:36:33;;;;;;;;;;;17.80;98.00;;;;;;6217138;23;19904;-72
2023/04/13 09:39:00;;;;;;;;;;;17.80;98.00;;;;;;6242766;22;20303;-71
2023/04/13 09:41:37;;;;;;;;;;;17.80;98.00;;;;;;6216613;23;19939;-72
2023/04/13 09:44:19;;;;;;;;;;;17.80;98.00;;;;;;6243295;23;20239;-72
2023/04/13 09:46:58;;;;;;;;;;;17.80;98.00;;;;;;6243100;22;19903;-71
2023/04/13 09:49:26;;;;;;;;;;;17.80;98.10;;;;;;6239914;23;19908;-71
2023/04/13 09:51:53;;;;;;;;;;;17.70;98.10;;;;;;6243447;23;19904;-71
2023/04/13 09:54:22;;;;;;;;;;;17.70;98.10;;;;;;6190881;23;20285;-71
2023/04/13 09:56:54;;;;;;;;;;;17.70;98.00;;;;;;6242381;22;19904;-71
2023/04/13 09:59:24;;;;;;;;;;;17.60;98.00;;;;;;6243224;23;19919;-71
2023/04/13 10:01:52;;;;;;;;;;;17.70;98.10;;;;;;6242957;23;19915;-71
2023/04/13 10:04:19;;;;;;;;;;;17.60;98.10;;;;;;6216702;23;19926;-71
2023/04/13 10:06:46;;;;;;;;;;;17.70;98.10;;;;;;6242987;22;20398;-71
2023/04/13 10:09:13;;;;;;;;;;;17.60;98.10;;;;;;6243240;23;19931;-71
2023/04/13 10:11:48;;;;;;;;;;;17.50;98.10;;;;;;6242974;23;19917;-71
2023/04/13 10:14:22;;;;;;;;;;;17.60;98.10;;;;;;6215541;23;20334;-71
2023/04/13 10:16:58;;;;;;;;;;;17.60;98.20;;;;;;6215182;23;19931;-69
2023/04/13 10:19:27;;;;;;;;;;;17.50;98.10;;;;;;6242504;23;20254;-69
2023/04/13 10:21:54;;;;;;;;;;;17.40;98.00;;;;;;6216203;23;19911;-69
2023/04/13 10:24:22;;;;;;;;;;;17.30;98.10;;;;;;6215632;23;19904;-69
2023/04/13 10:26:52;;;;;;;;;;;17.30;98.10;;;;;;6215576;23;19938;-69
2023/04/13 10:29:26;;;;;;;;;;;17.40;98.20;;;;;;6242454;23;19908;-71
2023/04/13 10:32:01;;;;;;;;;;;17.40;98.20;;;;;;6242482;23;19990;-70
2023/04/13 10:34:28;;;;;;;;;;;17.40;98.10;;;;;;6242714;23;19931;-71
2023/04/13 10:36:57;;;;;;;;;;;17.40;98.00;;;;;;6242112;22;20002;-70
2023/04/13 10:39:24;;;;;;;;;;;17.30;98.00;;;;;;6242959;22;20327;-70
2023/04/13 10:42:03;;;;;;;;;;;17.30;98.10;;;;;;6242111;23;19908;-70
2023/04/13 10:44:42;;;;;;;;;;;17.30;98.10;;;;;;6242474;23;19907;-71
2023/04/13 10:47:10;;;;;;;;;;;17.30;98.00;;;;;;6242394;22;20285;-71
2023/04/13 10:49:37;;;;;;;;;;;17.30;98.10;;;;;;6241333;23;20295;-70
2023/04/13 10:52:03;;;;;;;;;;;17.20;98.00;;;;;;6245169;23;19903;-68
2023/04/13 10:54:30;;;;;;;;;;;17.30;98.10;;;;;;6246004;23;19911;-70
2023/04/13 10:56:57;;;;;;;;;;;17.30;98.10;;;;;;6244947;22;19919;-70
2023/04/13 10:59:44;;;;;;;;;;;17.30;98.10;;;;;;6245260;23;19910;-70
2023/04/13 11:02:15;;;;;;;;;;;17.30;98.10;;;;;;6244783;23;20242;-69
2023/04/13 11:04:45;;;;;;;;;;;17.40;98.10;;;;;;6245159;23;19908;-70
2023/04/13 11:07:22;;;;;;;;;;;17.40;98.10;;;;;;6244508;22;19908;-70
2023/04/13 11:09:52;;;;;;;;;;;17.40;98.10;;;;;;6244739;23;19903;-70
2023/04/13 11:12:19;;;;;;;;;;;17.40;98.20;;;;;;6243573;23;19907;-69
2023/04/13 11:14:46;;;;;;;;;;;17.40;98.10;;;;;;6244658;23;19904;-69
2023/04/13 11:17:13;;;;;;;;;;;17.30;98.10;;;;;;6244973;22;19912;-70
2023/04/13 11:19:49;;;;;;;;;;;17.40;98.20;;;;;;6245352;23;19904;-69
2023/04/13 11:22:16;;;;;;;;;;;17.30;98.10;;;;;;6246360;23;19911;-70
2023/04/13 11:24:44;;;;;;;;;;;17.40;98.20;;;;;;6218990;23;19903;-70
2023/04/13 11:27:16;;;;;;;;;;;17.40;98.20;;;;;;6244735;22;19986;-69
2023/04/13 11:29:43;;;;;;;;;;;17.40;98.20;;;;;;6244685;23;19904;-70
2023/04/13 11:32:19;;;;;;;;;;;17.40;98.10;;;;;;6245017;23;19911;-69
2023/04/13 11:34:48;;;;;;;;;;;17.30;98.20;;;;;;6244886;23;19947;-69
2023/04/13 11:37:15;;;;;;;;;;;17.40;98.20;;;;;;6244566;22;20049;-69
2023/04/13 11:39:44;;;;;;;;;;;17.40;98.20;;;;;;6244589;22;19915;-69
2023/04/13 11:42:14;;;;;;;;;;;17.30;98.20;;;;;;6218752;23;20341;-69
2023/04/13 11:44:44;;;;;;;;;;;17.30;98.20;;;;;;6219120;23;19954;-70
2023/04/13 11:47:12;;;;;;;;;;;17.30;98.20;;;;;;6245033;22;20314;-70
2023/04/13 11:49:40;;;;;;;;;;;17.30;98.20;;;;;;6218963;23;20281;-69
2023/04/13 11:52:07;;;;;;;;;;;17.30;98.20;;;;;;6218784;23;20242;-70
2023/04/13 11:54:33;;;;;;;;;;;17.30;98.20;;;;;;6218432;23;19982;-70
2023/04/13 11:57:00;;;;;;;;;;;17.30;98.20;;;;;;6218489;23;20245;-70
2023/04/13 11:59:27;;;;;;;;;;;17.30;98.20;;;;;;6245353;23;19903;-70
2023/04/13 12:01:54;;;;;;;;;;;17.30;98.20;;;;;;6244351;23;19903;-69
2023/04/13 12:04:21;;;;;;;;;;;17.30;98.20;;;;;;6244632;23;19926;-70
2023/04/13 12:06:47;;;;;;;;;;;17.30;98.20;;;;;;6244867;22;20341;-70
2023/04/13 12:09:14;;;;;;;;;;;17.30;98.20;;;;;;6218299;23;19904;-70
2023/04/13 12:11:41;;;;;;;;;;;17.30;98.20;;;;;;6218707;23;20414;-70
2023/04/13 12:14:08;;;;;;;;;;;17.30;98.20;;;;;;6245347;23;19903;-70
2023/04/13 12:16:35;;;;;;;;;;;17.20;98.20;;;;;;6218371;23;19912;-70
2023/04/13 12:19:07;;;;;;;;;;;17.30;98.20;;;;;;6245209;23;19990;-70
2023/04/13 12:21:34;;;;;;;;;;;17.20;98.30;;;;;;6244930;23;19946;-71
2023/04/13 12:24:01;;;;;;;;;;;17.20;98.20;;;;;;6244732;23;19915;-70
2023/04/13 12:26:36;;;;;;;;;;;17.20;98.30;;;;;;6244572;22;19903;-70
2023/04/13 12:29:05;;;;;;;;;;;17.30;98.30;;;;;;6244413;23;19903;-70
2023/04/13 12:31:35;;;;;;;;;;;17.20;98.20;;;;;;6217608;23;19904;-70
2023/04/13 12:34:02;;;;;;;;;;;17.20;98.30;;;;;;6244815;23;19950;-70
2023/04/13 12:36:30;;;;;;;;;;;17.20;98.30;;;;;;6244137;22;19904;-66
2023/04/13 12:38:58;;;;;;;;;;;17.20;98.30;;;;;;6244632;22;19916;-67
2023/04/13 12:41:25;;;;;;;;;;;17.20;98.30;;;;;;6245749;23;19911;-69
2023/04/13 12:43:51;;;;;;;;;;;17.20;98.40;;;;;;6245432;23;19990;-68
2023/04/13 12:46:19;;;;;;;;;;;17.10;98.30;;;;;;6244711;22;19977;-69
2023/04/13 12:48:46;;;;;;;;;;;17.20;98.40;;;;;;6244964;23;19911;-68
2023/04/13 12:51:12;;;;;;;;;;;17.20;98.40;;;;;;6244559;23;19974;-69
2023/04/13 12:53:39;;;;;;;;;;;17.10;98.40;;;;;;6244817;23;19910;-69
2023/04/13 12:56:06;;;;;;;;;;;17.10;98.40;;;;;;6244863;22;20243;-70
2023/04/13 12:58:34;;;;;;;;;;;17.10;98.50;;;;;;6244999;23;20015;-70
2023/04/13 13:01:01;;;;;;;;;;;17.10;98.50;;;;;;6246999;23;19908;-70
2023/04/13 13:03:28;;;;;;;;;;;17.10;98.50;;;;;;6245836;23;19903;-69
2023/04/13 13:05:55;;;;;;;;;;;17.10;98.40;;;;;;6246673;22;19912;-71
2023/04/13 13:08:22;;;;;;;;;;;17.10;98.50;;;;;;6246828;23;19909;-70
2023/04/13 13:10:48;;;;;;;;;;;17.10;98.50;;;;;;6246863;23;20204;-71
2023/04/13 13:13:16;;;;;;;;;;;17.10;98.50;;;;;;6245798;23;19911;-71
2023/04/13 13:15:42;;;;;;;;;;;17.10;98.50;;;;;;6219320;22;19983;-71
2023/04/13 13:18:10;;;;;;;;;;;17.10;98.50;;;;;;6245990;23;19911;-71
2023/04/13 13:20:40;;;;;;;;;;;17.10;98.50;;;;;;6246687;23;19904;-71
2023/04/13 13:23:10;;;;;;;;;;;17.10;98.50;;;;;;6246136;23;19911;-71
2023/04/13 13:25:38;;;;;;;;;;;17.00;98.60;;;;;;6246491;22;19935;-69
2023/04/13 13:28:07;;;;;;;;;;;17.00;98.50;;;;;;6245978;23;19927;-67
2023/04/13 13:30:37;;;;;;;;;;;17.00;98.60;;;;;;6246137;23;19939;-68
2023/04/13 13:33:04;;;;;;;;;;;17.00;98.60;;;;;;6246400;23;20230;-69
2023/04/13 13:35:34;;;;;;;;;;;17.00;98.60;;;;;;6246669;23;20035;-69
2023/04/13 13:38:00;;;;;;;;;;;16.90;98.60;;;;;;6245774;22;19935;-69
2023/04/13 13:40:27;;;;;;;;;;;16.90;98.70;;;;;;6271561;22;19915;-70
2023/04/13 13:42:54;;;;;;;;;;;16.90;98.70;;;;;;6276862;22;19904;-70
2023/04/13 13:45:21;;;;;;;;;;;16.90;98.70;;;;;;6276925;22;19985;-70
2023/04/13 13:47:52;;;;;;;;;;;17.00;98.70;;;;;;6276815;22;19908;-71
2023/04/13 13:50:20;;;;;;;;;;;16.90;98.70;;;;;;6276599;22;19907;-70
2023/04/13 13:52:47;;;;;;;;;;;16.90;98.70;;;;;;6276550;22;19986;-71
2023/04/13 13:55:17;;;;;;;;;;;16.90;98.70;;;;;;6277076;22;19903;-71
2023/04/13 13:57:43;;;;;;;;;;;16.90;98.70;;;;;;6277170;22;19998;-71
2023/04/13 14:00:16;;;;;;;;;;;17.00;98.70;;;;;;6277227;22;20444;-71
2023/04/13 14:02:43;;;;;;;;;;;17.00;98.80;;;;;;6275866;22;19903;-71
2023/04/13 14:05:13;;;;;;;;;;;17.00;98.70;;;;;;6276968;22;19910;-72
2023/04/13 14:07:45;;;;;;;;;;;17.00;98.80;;;;;;6277385;22;20211;-71
2023/04/13 14:10:12;;;;;;;;;;;17.00;98.80;;;;;;6275472;22;19985;-71
2023/04/13 14:12:44;;;;;;;;;;;17.00;98.80;;;;;;6276875;22;19910;-71
2023/04/13 14:15:14;;;;;;;;;;;17.00;98.80;;;;;;6276382;22;19913;-72
2023/04/13 14:17:41;;;;;;;;;;;17.00;98.80;;;;;;6276252;22;19949;-72
2023/04/13 14:20:09;;;;;;;;;;;17.00;98.80;;;;;;6276800;22;19903;-72
2023/04/13 14:22:36;;;;;;;;;;;17.10;98.80;;;;;;6250170;22;20387;-72
2023/04/13 14:25:03;;;;;;;;;;;17.10;98.80;;;;;;6250195;22;19978;-72
2023/04/13 14:27:29;;;;;;;;;;;17.10;98.80;;;;;;6276171;22;20281;-72
2023/04/13 14:29:56;;;;;;;;;;;17.10;98.80;;;;;;6276278;22;19903;-72
2023/04/13 14:32:23;;;;;;;;;;;17.10;98.80;;;;;;6276078;22;19911;-70
2023/04/13 14:34:49;;;;;;;;;;;17.10;98.80;;;;;;6275755;22;20215;-71
2023/04/13 14:37:16;;;;;;;;;;;17.10;98.80;;;;;;6249533;22;19911;-70
2023/04/13 14:39:43;;;;;;;;;;;17.20;98.90;;;;;;6275977;22;20334;-70
2023/04/13 14:42:11;;;;;;;;;;;17.20;98.80;;;;;;6276029;22;19956;-70
2023/04/13 14:44:37;;;;;;;;;;;17.20;98.90;;;;;;6276529;22;20192;-66
2023/04/13 14:47:05;;;;;;;;;;;17.20;98.90;;;;;;6276492;22;20350;-66
2023/04/13 14:49:32;;;;;;;;;;;17.10;98.90;;;;;;6276912;22;19903;-67
2023/04/13 14:51:58;;;;;;;;;;;17.10;98.90;;;;;;6275493;22;20269;-68
2023/04/13 14:54:25;;;;;;;;;;;17.00;98.90;;;;;;6276032;22;19904;-69
2023/04/13 14:56:52;;;;;;;;;;;17.00;98.90;;;;;;6275686;22;19942;-69
2023/04/13 14:59:19;;;;;;;;;;;17.00;98.90;;;;;;6276351;22;20284;-69
2023/04/13 15:01:45;;;;;;;;;;;17.00;98.90;;;;;;6276008;22;20000;-69
2023/04/13 15:04:12;;;;;;;;;;;17.00;98.90;;;;;;6275890;22;19904;-69
2023/04/13 15:06:39;;;;;;;;;;;17.00;98.90;;;;;;6276035;22;19903;-70
2023/04/13 15:09:08;;;;;;;;;;;17.00;98.90;;;;;;6276376;22;20324;-71
2023/04/13 15:11:36;;;;;;;;;;;16.90;98.90;;;;;;6275817;22;19911;-70
2023/04/13 15:14:02;;;;;;;;;;;17.00;98.90;;;;;;6276220;22;19904;-70
2023/04/13 15:16:29;;;;;;;;;;;17.00;98.90;;;;;;6275988;22;19903;-70
2023/04/13 15:18:57;;;;;;;;;;;17.00;98.90;;;;;;6276258;22;19911;-70
2023/04/13 15:21:24;;;;;;;;;;;16.90;98.90;;;;;;6275837;22;20292;-70
2023/04/13 15:23:50;;;;;;;;;;;16.90;98.90;;;;;;6275920;22;19903;-70
2023/04/13 15:26:17;;;;;;;;;;;16.90;98.90;;;;;;6276032;22;19903;-71
2023/04/13 15:28:44;;;;;;;;;;;16.80;98.90;;;;;;6276882;22;19934;-71
2023/04/13 15:31:11;;;;;;;;;;;16.80;98.90;;;;;;6275294;22;20222;-71
2023/04/13 15:33:38;;;;;;;;;;;16.80;98.90;;;;;;6276074;22;20029;-72
2023/04/13 15:36:05;;;;;;;;;;;16.80;98.90;;;;;;6275968;22;19903;-72
2023/04/13 15:38:31;;;;;;;;;;;16.70;98.90;;;;;;6275827;22;19989;-71
2023/04/13 15:40:58;;;;;;;;;;;16.70;98.90;;;;;;6275632;22;19981;-72
2023/04/13 15:43:25;;;;;;;;;;;16.70;98.90;;;;;;6275982;22;19907;-72
2023/04/13 15:45:52;;;;;;;;;;;16.70;98.90;;;;;;6275556;22;19970;-72
2023/04/13 15:48:19;;;;;;;;;;;16.60;98.90;;;;;;6275412;22;19907;-72
2023/04/13 15:50:46;;;;;;;;;;;16.50;98.90;;;;;;6275747;22;20264;-73
2023/04/13 15:53:12;;;;;;;;;;;16.40;98.90;;;;;;6275932;22;19903;-71
2023/04/13 15:55:39;;;;;;;;;;;16.40;98.90;;;;;;6249258;22;19911;-71
2023/04/13 15:58:06;;;;;;;;;;;16.40;99.00;;;;;;6248740;22;19998;-71
2023/04/13 16:00:33;;;;;;;;;;;16.30;98.90;;;;;;6276057;22;19948;-71
2023/04/13 16:03:00;;;;;;;;;;;16.20;98.90;;;;;;6248284;22;19910;-71
2023/04/13 16:05:27;;;;;;;;;;;16.30;99.00;;;;;;6275531;22;19915;-70
2023/04/13 16:07:53;;;;;;;;;;;16.30;99.00;;;;;;6275786;22;20349;-70
2023/04/13 16:10:20;;;;;;;;;;;16.20;99.00;;;;;;6275795;22;19903;-70
2023/04/13 16:12:48;;;;;;;;;;;16.20;99.00;;;;;;6276008;22;19907;-71
2023/04/13 16:15:15;;;;;;;;;;;16.20;99.00;;;;;;6276026;22;19949;-71
2023/04/13 16:17:46;;;;;;;;;;;16.20;99.00;;;;;;6275934;22;19911;-71
2023/04/13 16:22:40;;;;;;;;;;;16.20;99.00;;;;;;6275711;22;19916;-71
2023/04/13 16:25:11;;;;;;;;;;;16.20;99.00;;;;;;6276100;22;19969;-71
2023/04/13 16:27:38;;;;;;;;;;;16.20;99.00;;;;;;6275619;22;19907;-72
2023/04/13 16:30:07;;;;;;;;;;;16.10;99.00;;;;;;6275048;22;19904;-71
2023/04/13 16:32:33;;;;;;;;;;;16.20;99.00;;;;;;6275263;22;20267;-72
2023/04/13 16:35:00;;;;;;;;;;;16.20;99.00;;;;;;6277247;22;19956;-72
2023/04/13 16:37:27;;;;;;;;;;;16.10;99.00;;;;;;6277808;22;19907;-71
2023/04/13 16:39:53;;;;;;;;;;;16.10;99.00;;;;;;6277022;22;20038;-71
2023/04/13 16:42:20;;;;;;;;;;;16.10;99.00;;;;;;6277449;22;20277;-72
2023/04/13 16:44:47;;;;;;;;;;;16.10;99.00;;;;;;6277545;22;19903;-71
2023/04/13 16:47:14;;;;;;;;;;;16.10;99.00;;;;;;6277637;22;20286;-72
2023/04/13 16:49:41;;;;;;;;;;;16.10;99.00;;;;;;6277731;22;19911;-71
2023/04/13 16:52:08;;;;;;;;;;;16.10;99.00;;;;;;6277696;22;20311;-71
2023/04/13 16:54:35;;;;;;;;;;;16.10;99.00;;;;;;6277252;22;19957;-72
2023/04/13 16:57:02;;;;;;;;;;;16.10;99.00;;;;;;6276880;22;19911;-72
2023/04/13 16:59:29;;;;;;;;;;;16.10;99.00;;;;;;6277300;22;19903;-72
2023/04/13 17:01:55;;;;;;;;;;;16.10;99.00;;;;;;6277744;22;19910;-72
2023/04/13 17:04:22;;;;;;;;;;;16.10;99.00;;;;;;6277129;22;19903;-72
2023/04/13 17:06:49;;;;;;;;;;;16.10;99.00;;;;;;6277685;22;19979;-72
2023/04/13 17:09:15;;;;;;;;;;;16.10;99.00;;;;;;6276908;22;19903;-72
2023/04/13 17:11:42;;;;;;;;;;;16.00;99.00;;;;;;6277503;22;19903;-72
2023/04/13 17:14:09;;;;;;;;;;;16.00;99.00;;;;;;6277263;22;20276;-72
2023/04/13 17:16:36;;;;;;;;;;;16.00;99.00;;;;;;6277171;22;20002;-72
2023/04/13 17:19:02;;;;;;;;;;;16.10;99.00;;;;;;6277577;22;19919;-72
2023/04/13 17:21:29;;;;;;;;;;;16.00;99.00;;;;;;6277698;22;20268;-72
2023/04/13 17:23:56;;;;;;;;;;;16.10;99.00;;;;;;6277268;22;19903;-72
2023/04/13 17:26:23;;;;;;;;;;;16.00;99.00;;;;;;6277126;22;19907;-72
2023/04/13 17:28:50;;;;;;;;;;;16.00;99.00;;;;;;6249986;22;19903;-72
2023/04/13 17:31:16;;;;;;;;;;;15.90;99.00;;;;;;6277295;22;19903;-72
2023/04/13 17:33:44;;;;;;;;;;;15.90;99.00;;;;;;6276446;22;19954;-72
2023/04/13 17:36:10;;;;;;;;;;;15.90;99.00;;;;;;6277303;22;20357;-72
2023/04/13 17:38:37;;;;;;;;;;;15.80;99.00;;;;;;6276846;22;20234;-71
2023/04/13 17:41:05;;;;;;;;;;;15.80;99.00;;;;;;6277147;22;19918;-72
2023/04/13 17:43:32;;;;;;;;;;;15.80;99.00;;;;;;6276959;22;19910;-72
2023/04/13 17:45:58;;;;;;;;;;;15.80;99.00;;;;;;6276807;22;19919;-72
2023/04/13 17:48:25;;;;;;;;;;;15.90;99.00;;;;;;6277220;22;19903;-72
2023/04/13 17:50:52;;;;;;;;;;;15.90;99.00;;;;;;6277321;22;20280;-72
2023/04/13 17:53:18;;;;;;;;;;;15.90;99.00;;;;;;6277064;22;19904;-72
2023/04/13 17:55:45;;;;;;;;;;;15.90;99.00;;;;;;6277095;22;19903;-72
2023/04/13 17:58:12;;;;;;;;;;;15.90;99.00;;;;;;6276599;22;19911;-72
2023/04/13 18:00:39;;;;;;;;;;;15.90;99.00;;;;;;6277153;22;20555;-72
2023/04/13 18:03:07;;;;;;;;;;;15.80;99.00;;;;;;6277000;22;19903;-72
2023/04/13 18:05:34;;;;;;;;;;;15.80;99.00;;;;;;6276294;22;19907;-72
2023/04/13 18:08:01;;;;;;;;;;;15.80;99.00;;;;;;6276942;22;19982;-72
2023/04/13 18:10:28;;;;;;;;;;;15.80;99.00;;;;;;6276559;22;19909;-72
2023/04/13 18:12:55;;;;;;;;;;;15.70;99.00;;;;;;6277226;22;19911;-72
2023/04/13 18:15:22;;;;;;;;;;;15.70;99.00;;;;;;6249634;22;19978;-72
2023/04/13 18:17:49;;;;;;;;;;;15.70;99.00;;;;;;6276858;22;20244;-72
2023/04/13 18:20:16;;;;;;;;;;;15.70;99.00;;;;;;6276365;22;19903;-72
2023/04/13 18:22:42;;;;;;;;;;;15.70;99.00;;;;;;6276640;22;19903;-72
2023/04/13 18:25:09;;;;;;;;;;;15.70;99.00;;;;;;6249183;22;20311;-72
2023/04/13 18:27:36;;;;;;;;;;;15.70;99.00;;;;;;6276129;22;19938;-72
2023/04/13 18:30:03;;;;;;;;;;;15.70;99.00;;;;;;6276971;22;19978;-72
2023/04/13 18:32:29;;;;;;;;;;;15.70;99.00;;;;;;6276684;22;20326;-72
2023/04/13 18:34:56;;;;;;;;;;;15.70;99.00;;;;;;6276061;22;19907;-73
2023/04/13 18:37:23;;;;;;;;;;;15.70;99.00;;;;;;6276283;22;19934;-73
2023/04/13 18:39:51;;;;;;;;;;;15.70;99.00;;;;;;6276802;22;19916;-73
2023/04/13 18:42:18;;;;;;;;;;;15.70;99.00;;;;;;6277044;22;19911;-73
2023/04/13 18:44:44;;;;;;;;;;;15.70;99.00;;;;;;6276615;22;19904;-73
2023/04/13 18:47:11;;;;;;;;;;;15.60;99.00;;;;;;6276417;22;19999;-73
2023/04/13 18:49:38;;;;;;;;;;;15.70;99.00;;;;;;6276364;22;19907;-73
2023/04/13 18:52:04;;;;;;;;;;;15.60;99.00;;;;;;6272855;22;19907;-72
2023/04/13 18:54:31;;;;;;;;;;;15.60;99.00;;;;;;6275268;22;20311;-72
2023/04/13 18:56:58;;;;;;;;;;;15.60;99.00;;;;;;6275264;22;19925;-72
2023/04/13 18:59:25;;;;;;;;;;;15.60;99.00;;;;;;6275827;22;19911;-73
2023/04/13 19:01:51;;;;;;;;;;;15.60;99.00;;;;;;6276052;22;19934;-72
2023/04/13 19:04:18;;;;;;;;;;;15.60;99.00;;;;;;6275562;22;19907;-72
2023/04/13 19:06:45;;;;;;;;;;;15.60;99.00;;;;;;6276289;22;19908;-72
2023/04/13 19:09:11;;;;;;;;;;;15.50;99.00;;;;;;6276001;22;19903;-72
2023/04/13 19:11:45;;;;;;;;;;;15.60;99.00;;;;;;6276230;22;20242;-73
2023/04/13 19:14:12;;;;;;;;;;;15.60;99.00;;;;;;6274952;22;20396;-72
2023/04/13 19:16:40;;;;;;;;;;;15.60;99.00;;;;;;6275478;22;19904;-72
2023/04/13 19:19:07;;;;;;;;;;;15.50;99.00;;;;;;6276450;22;19916;-72
2023/04/13 19:21:34;;;;;;;;;;;15.60;99.00;;;;;;6276869;22;19904;-72
2023/04/13 19:24:00;;;;;;;;;;;15.60;99.00;;;;;;6276390;22;20314;-72
2023/04/13 19:26:28;;;;;;;;;;;15.60;99.00;;;;;;6276100;22;19903;-72
2023/04/13 19:28:54;;;;;;;;;;;15.60;99.00;;;;;;6276397;22;19939;-73
2023/04/13 19:31:21;;;;;;;;;;;15.50;98.90;;;;;;6276814;22;19994;-73
2023/04/13 19:33:50;;;;;;;;;;;15.50;98.90;;;;;;6275623;22;19982;-73
2023/04/13 19:36:17;;;;;;;;;;;15.40;98.90;;;;;;6276376;22;19908;-73
2023/04/13 19:38:43;;;;;;;;;;;15.50;99.00;;;;;;6276555;22;19922;-73
